Time;durP1;ratioP1;P1;durP2;ratioP2;P2;SDS_P1;SDS_P2;PMS_P1;PMS_P2;Temp;Humidity;BMP_temperature;BMP_pressure;BME280_temperature;BME280_humidity;BME280_pressure;Samples;Min_cycle;Max_cycle;Signal;HPM_P1;HPM_P2
2022/12/04 00:01:36;;;;;;;50.72;28.05;;;;;;;0.92;87.62;101614.75;5075412;28;20024;-73
2022/12/04 00:04:02;;;;;;;51.15;28.45;;;;;;;0.92;87.91;101604.16;5066598;28;20021;-73
2022/12/04 00:06:28;;;;;;;48.50;27.48;;;;;;;0.93;87.47;101611.22;5073634;28;20021;-73
2022/12/04 00:08:54;;;;;;;53.33;29.20;;;;;;;0.95;88.20;101607.63;5073947;28;20092;-73
2022/12/04 00:11:23;;;;;;;52.00;28.45;;;;;;;0.94;87.73;101605.00;5077263;28;20504;-73
2022/12/04 00:13:49;;;;;;;45.42;26.65;;;;;;;0.93;87.93;101598.84;5076692;28;20052;-73
2022/12/04 00:16:19;;;;;;;50.63;29.00;;;;;;;0.91;87.53;101598.00;5076244;28;20032;-73
2022/12/04 00:18:44;;;;;;;50.45;27.58;;;;;;;0.90;87.96;101596.25;5077745;28;20040;-73
2022/12/04 00:21:11;;;;;;;53.53;29.13;;;;;;;0.90;88.05;101598.03;5071719;28;20489;-73
2022/12/04 00:23:38;;;;;;;47.60;28.38;;;;;;;0.89;88.17;101594.50;5074985;28;20095;-73
2022/12/04 00:26:06;;;;;;;48.78;27.38;;;;;;;0.87;88.32;101593.69;5073877;28;20482;-73
2022/12/04 00:28:32;;;;;;;53.67;28.70;;;;;;;0.89;87.94;101593.63;5076263;28;20078;-73
2022/12/04 00:30:58;;;;;;;51.72;27.13;;;;;;;0.89;88.39;101589.22;5071630;28;20025;-73
2022/12/04 00:33:23;;;;;;;49.40;28.17;;;;;;;0.87;87.65;101591.88;5058592;28;20035;-73
2022/12/04 00:35:56;;;;;;;50.00;27.75;;;;;;;0.86;88.10;101590.16;5059214;28;20082;-72
2022/12/04 00:38:21;;;;;;;52.67;27.75;;;;;;;0.86;88.42;101603.41;5076907;28;20028;-73
2022/12/04 00:40:48;;;;;;;52.85;29.45;;;;;;;0.85;88.29;101598.16;5075805;28;20484;-72
2022/12/04 00:43:14;;;;;;;48.58;26.65;;;;;;;0.84;88.26;101601.69;5067070;28;20426;-73
2022/12/04 00:45:39;;;;;;;52.90;27.92;;;;;;;0.83;88.74;101599.94;5071837;28;20025;-73
2022/12/04 00:48:04;;;;;;;48.03;27.20;;;;;;;0.86;88.28;101589.28;5077640;28;20469;-73
2022/12/04 00:50:29;;;;;;;51.05;29.85;;;;;;;0.88;88.78;101592.78;5076438;28;20044;-73
2022/12/04 00:52:56;;;;;;;51.20;28.42;;;;;;;0.89;88.71;101598.94;5076528;28;20020;-73
2022/12/04 00:55:22;;;;;;;49.45;26.17;;;;;;;0.86;88.09;101584.00;5076948;28;20394;-72
2022/12/04 00:57:47;;;;;;;54.05;29.23;;;;;;;0.86;87.97;101584.00;5073293;28;20039;-72
2022/12/04 01:00:12;;;;;;;50.28;25.63;;;;;;;0.83;88.22;101590.22;5077958;28;20399;-73
2022/12/04 01:02:38;;;;;;;55.28;31.60;;;;;;;0.82;88.63;101583.19;5073824;28;20111;-73
2022/12/04 01:05:03;;;;;;;53.10;28.40;;;;;;;0.82;88.66;101595.53;5063505;28;20056;-72
2022/12/04 01:07:28;;;;;;;49.00;28.83;;;;;;;0.84;88.11;101601.69;5075029;28;20024;-73
2022/12/04 01:09:54;;;;;;;52.70;26.77;;;;;;;0.83;88.33;101595.50;5071175;28;20060;-73
2022/12/04 01:12:19;;;;;;;52.90;29.00;;;;;;;0.82;88.25;101604.38;5071793;28;20024;-73
2022/12/04 01:14:44;;;;;;;53.03;30.50;;;;;;;0.81;88.80;101601.75;5061239;28;20069;-73
2022/12/04 01:17:10;;;;;;;53.63;27.77;;;;;;;0.78;88.32;101600.03;5073884;28;20028;-73
2022/12/04 01:19:35;;;;;;;50.20;28.20;;;;;;;0.80;88.84;101603.50;5070146;28;20032;-73
2022/12/04 01:22:00;;;;;;;52.65;26.67;;;;;;;0.84;88.33;101602.53;5064859;28;20036;-72
2022/12/04 01:24:26;;;;;;;51.45;26.70;;;;;;;0.87;88.85;101604.25;5061342;28;20066;-72
2022/12/04 01:26:51;;;;;;;45.38;26.52;;;;;;;0.87;87.93;101604.25;5055274;28;20036;-72
2022/12/04 01:29:16;;;;;;;54.88;28.70;;;;;;;0.89;88.55;101602.44;5061538;28;20043;-73
2022/12/04 01:31:41;;;;;;;47.10;26.98;;;;;;;0.86;88.40;101606.06;5073304;28;20047;-73
2022/12/04 01:34:07;;;;;;;49.30;28.63;;;;;;;0.85;88.08;101611.38;5072268;28;20111;-73
2022/12/04 01:36:32;;;;;;;48.72;26.58;;;;;;;0.87;88.80;101612.19;5069983;28;20093;-73
2022/12/04 01:38:57;;;;;;;48.67;27.15;;;;;;;0.85;88.55;101609.59;5073547;28;20028;-73
2022/12/04 01:41:26;;;;;;;52.78;26.52;;;;;;;0.83;88.33;101607.88;5072092;28;20036;-73
2022/12/04 01:44:14;;;;;;;50.30;27.98;;;;;;;0.88;88.87;101598.06;5059201;28;20040;-73
2022/12/04 01:46:40;;;;;;;46.42;26.77;;;;;;;0.86;88.85;101605.16;5065810;28;20028;-73
2022/12/04 01:49:13;;;;;;;43.08;26.08;;;;;;;0.88;88.98;101592.78;5073366;28;20444;-73
2022/12/04 01:51:44;;;;;;;54.95;30.50;;;;;;;0.88;88.35;101587.50;5072568;28;20044;-72
2022/12/04 01:54:27;;;;;;;47.17;25.90;;;;;;;0.86;88.55;101589.28;5073234;28;20040;-73
2022/12/04 01:56:57;;;;;;;52.15;28.20;;;;;;;0.83;88.60;101584.06;5073932;28;20122;-73
2022/12/04 01:59:27;;;;;;;49.60;26.58;;;;;;;0.82;88.25;101583.19;5071986;28;20078;-73
2022/12/04 02:02:03;;;;;;;55.75;26.77;;;;;;;0.82;88.75;101583.19;5071336;28;20028;-72
2022/12/04 02:04:30;;;;;;;47.88;27.15;;;;;;;0.81;89.01;101583.22;5071487;28;20081;-73
2022/12/04 02:06:55;;;;;;;47.47;26.02;;;;;;;0.81;88.46;101580.59;5072740;28;20024;-73
2022/12/04 02:09:22;;;;;;;48.80;27.40;;;;;;;0.79;88.57;101583.25;5073063;28;20463;-73
2022/12/04 02:11:55;;;;;;;48.13;25.95;;;;;;;0.79;88.46;101583.25;5068989;28;20039;-73
2022/12/04 02:14:43;;;;;;;52.65;30.08;;;;;;;0.78;88.64;101586.81;5066437;28;20081;-73
2022/12/04 02:17:38;;;;;;;50.75;26.38;;;;;;;0.78;89.00;101576.22;5070960;28;20489;-73
2022/12/04 02:20:13;;;;;;;54.53;27.55;;;;;;;0.74;88.60;101582.47;5072758;28;20498;-73
2022/12/04 02:22:44;;;;;;;51.72;27.80;;;;;;;0.73;88.48;101579.84;5053602;28;20028;-73
2022/12/04 02:25:44;;;;;;;54.88;30.33;;;;;;;0.74;88.63;101573.66;5060849;28;20043;-73
2022/12/04 02:28:45;;;;;;;51.72;25.73;;;;;;;0.76;88.51;101578.03;5070851;28;20032;-72
2022/12/04 02:31:17;;;;;;;53.58;28.17;;;;;;;0.73;88.32;101585.16;5062944;28;20228;-73
2022/12/04 02:33:56;;;;;;;53.65;29.70;;;;;;;0.76;88.77;101583.31;5067869;28;20040;-73
2022/12/04 02:36:27;;;;;;;50.30;26.98;;;;;;;0.77;89.06;101573.59;5069894;28;20020;-73
2022/12/04 02:38:57;;;;;;;47.22;27.20;;;;;;;0.79;88.86;101582.38;5071143;28;20031;-73
2022/12/04 02:41:35;;;;;;;49.10;25.92;;;;;;;0.81;88.40;101577.94;5066574;28;20066;-73
2022/12/04 02:44:09;;;;;;;45.40;27.70;;;;;;;0.82;88.28;101577.00;5067063;28;20031;-73
2022/12/04 02:46:41;;;;;;;46.88;26.30;;;;;;;0.83;88.13;101578.75;5070489;28;20024;-73
2022/12/04 02:49:13;;;;;;;50.55;26.58;;;;;;;0.83;88.44;101573.47;5071518;28;20043;-72
2022/12/04 02:51:42;;;;;;;53.33;27.27;;;;;;;0.82;88.34;101577.91;5071018;28;20040;-73
2022/12/04 02:54:15;;;;;;;50.38;26.63;;;;;;;0.83;88.33;101574.31;5072535;28;20035;-73
2022/12/04 02:56:45;;;;;;;47.53;26.60;;;;;;;0.82;88.48;101571.72;5061872;28;20029;-72
2022/12/04 02:59:16;;;;;;;54.03;28.63;;;;;;;0.78;88.29;101565.63;5057533;28;20036;-73
2022/12/04 03:01:46;;;;;;;48.63;28.45;;;;;;;0.76;88.60;101563.91;5067358;28;20021;-73
2022/12/04 03:04:21;;;;;;;46.75;26.20;;;;;;;0.79;88.76;101566.50;5071184;28;20507;-73
2022/12/04 03:06:50;;;;;;;49.50;28.10;;;;;;;0.78;88.04;101562.13;5070681;28;20032;-73
2022/12/04 03:09:59;;;;;;;48.15;28.38;;;;;;;0.81;88.69;101564.69;5071386;28;20031;-73
2022/12/04 03:12:33;;;;;;;48.20;28.23;;;;;;;0.80;88.30;101560.31;5070776;28;20102;-73
2022/12/04 03:15:07;;;;;;;53.42;29.30;;;;;;;0.80;87.84;101569.09;5059597;28;20120;-73
2022/12/04 03:17:38;;;;;;;52.53;30.13;;;;;;;0.80;88.23;101566.47;5066578;28;20472;-73
2022/12/04 03:20:09;;;;;;;48.05;26.83;;;;;;;0.82;87.93;101569.97;5070919;28;20024;-73
2022/12/04 03:22:39;;;;;;;46.88;26.70;;;;;;;0.85;88.33;101569.03;5069798;28;20035;-73
2022/12/04 03:25:07;;;;;;;48.95;28.90;;;;;;;0.85;88.38;101571.69;5070629;28;20029;-73
2022/12/04 03:28:04;;;;;;;50.30;27.35;;;;;;;0.87;87.97;101567.22;5069948;28;20028;-72
2022/12/04 03:30:38;;;;;;;50.50;27.00;;;;;;;0.86;88.15;101563.72;5067139;28;20036;-73
2022/12/04 03:33:15;;;;;;;51.90;29.85;;;;;;;0.87;88.03;101565.44;5063590;28;20070;-73
2022/12/04 03:35:50;;;;;;;52.30;30.38;;;;;;;0.89;88.20;101567.19;5070927;28;20499;-73
2022/12/04 03:38:32;;;;;;;50.90;29.17;;;;;;;0.91;88.66;101560.06;5069755;28;20020;-73
2022/12/04 03:41:19;;;;;;;48.55;29.30;;;;;;;0.92;87.71;101553.88;5053756;28;20016;-73
2022/12/04 03:43:53;;;;;;;51.40;30.88;;;;;;;0.89;87.54;101554.81;5071475;28;20105;-73
2022/12/04 03:46:34;;;;;;;58.22;30.52;;;;;;;0.88;88.06;101555.72;5068836;28;20020;-72
2022/12/04 03:49:15;;;;;;;49.40;28.27;;;;;;;0.88;87.76;101553.09;5057682;28;20047;-73
2022/12/04 03:51:59;;;;;;;51.80;28.70;;;;;;;0.90;87.75;101550.41;5071282;28;20551;-73
2022/12/04 03:54:29;;;;;;;48.03;27.50;;;;;;;0.89;87.90;101551.31;5069940;28;20031;-73
2022/12/04 03:57:24;;;;;;;52.80;30.50;;;;;;;0.87;87.49;101549.56;5070731;28;20480;-73
2022/12/04 04:00:13;;;;;;;50.50;28.80;;;;;;;0.91;88.19;101555.66;5067014;28;20040;-73
2022/12/04 04:02:48;;;;;;;50.97;27.48;;;;;;;0.87;87.99;101553.97;5040772;28;20089;-73
2022/12/04 04:05:15;;;;;;;51.70;29.50;;;;;;;0.86;87.73;101555.78;5061484;28;20021;-72
2022/12/04 04:07:45;;;;;;;47.45;28.83;;;;;;;0.86;87.80;101546.94;5068286;28;20036;-73
2022/12/04 04:10:14;;;;;;;54.20;29.35;;;;;;;0.85;87.83;101553.16;5072124;28;20661;-73
2022/12/04 04:24:12;;;;;;;52.50;28.23;;;;;;;0.84;88.01;101549.63;5070254;28;20067;-73
2022/12/04 04:26:43;;;;;;;50.05;27.67;;;;;;;0.85;87.71;101553.16;5062766;28;20086;-73
2022/12/04 04:29:09;;;;;;;53.17;28.95;;;;;;;0.84;87.85;101549.63;5069669;28;20086;-73
2022/12/04 04:31:46;;;;;;;49.75;28.35;;;;;;;0.84;88.04;101554.06;5059569;28;20033;-73
2022/12/04 04:34:25;;;;;;;51.85;29.60;;;;;;;0.85;88.43;101548.72;5069862;28;20040;-73
2022/12/04 04:37:00;;;;;;;59.50;31.37;;;;;;;0.85;88.60;101548.72;5066761;28;20041;-73
2022/12/04 04:39:43;;;;;;;54.90;27.85;;;;;;;0.89;88.22;101544.22;5062163;28;20286;-73
2022/12/04 04:42:31;;;;;;;49.35;27.83;;;;;;;0.93;87.65;101547.69;5055791;28;20086;-73
2022/12/04 04:45:05;;;;;;;56.08;30.15;;;;;;;0.95;88.37;101545.88;5065785;28;20063;-73
2022/12/04 04:47:37;;;;;;;50.15;27.83;;;;;;;0.95;88.05;101553.81;5067351;28;20028;-73
2022/12/04 04:50:06;;;;;;;54.05;29.10;;;;;;;0.96;87.95;101548.47;5062859;28;20423;-73
2022/12/04 04:52:32;;;;;;;51.10;29.60;;;;;;;0.95;87.58;101548.50;5073319;28;20048;-73
2022/12/04 04:55:00;;;;;;;55.65;29.67;;;;;;;0.93;88.04;101545.91;5058952;28;20472;-72
2022/12/04 04:57:30;;;;;;;52.70;30.02;;;;;;;0.95;88.11;101557.34;5063351;28;20487;-73
2022/12/04 04:59:56;;;;;;;52.47;29.35;;;;;;;0.99;88.43;101561.63;5072514;28;20028;-73
2022/12/04 05:02:23;;;;;;;49.28;29.00;;;;;;;0.99;87.86;101559.00;5074770;28;20027;-73
2022/12/04 05:04:48;;;;;;;50.95;28.27;;;;;;;0.98;88.35;101553.72;5066313;28;20063;-73
2022/12/04 05:07:13;;;;;;;51.65;27.80;;;;;;;0.98;88.01;101553.72;5073703;28;20064;-73
2022/12/04 05:09:39;;;;;;;52.58;30.17;;;;;;;0.97;87.96;101563.47;5074137;28;20032;-72
2022/12/04 05:12:04;;;;;;;50.20;28.15;;;;;;;0.98;88.15;101561.69;5074225;28;20503;-73
2022/12/04 05:14:29;;;;;;;49.33;28.42;;;;;;;0.99;87.97;101560.78;5060493;28;20095;-73
2022/12/04 05:16:54;;;;;;;48.42;29.83;;;;;;;0.94;88.18;101550.31;5071674;28;20137;-73
2022/12/04 05:22:03;;;;;;;52.60;29.25;;;;;;;0.97;87.90;101555.53;5072076;28;20074;-73
2022/12/04 05:24:29;;;;;;;51.80;28.67;;;;;;;0.98;87.89;101561.69;5073837;28;20472;-73
2022/12/04 05:26:54;;;;;;;50.45;30.17;;;;;;;0.97;87.89;101555.53;5070657;28;20032;-73
2022/12/04 05:29:19;;;;;;;50.92;29.20;;;;;;;0.96;87.95;101560.84;5072132;28;20036;-73
2022/12/04 05:31:44;;;;;;;49.67;27.40;;;;;;;0.93;87.71;101555.63;5067134;28;20051;-72
2022/12/04 05:34:10;;;;;;;46.95;28.13;;;;;;;0.92;88.10;101557.38;5061658;28;20033;-73
2022/12/04 05:36:35;;;;;;;48.08;29.20;;;;;;;0.93;88.59;101556.50;5068373;28;20029;-73
2022/12/04 05:39:00;;;;;;;49.42;28.30;;;;;;;0.93;88.03;101548.56;5061619;28;20155;-73
2022/12/04 05:41:26;;;;;;;51.30;28.90;;;;;;;0.94;88.42;101555.59;5072805;28;20036;-73
2022/12/04 05:43:51;;;;;;;51.53;29.52;;;;;;;0.94;88.24;101552.06;5072133;28;20028;-73
2022/12/04 05:46:16;;;;;;;51.88;29.50;;;;;;;0.94;88.22;101549.41;5064906;28;20037;-73
2022/12/04 05:48:41;;;;;;;50.58;29.27;;;;;;;0.95;88.09;101545.88;5059896;28;20183;-73
2022/12/04 05:51:08;;;;;;;45.08;26.30;;;;;;;0.95;88.66;101549.41;5071778;28;20392;-73
2022/12/04 05:53:34;;;;;;;49.60;29.45;;;;;;;0.94;88.11;101545.00;5070229;28;20057;-73
2022/12/04 05:56:01;;;;;;;47.20;26.42;;;;;;;0.93;88.33;101537.97;5071305;28;20170;-73
2022/12/04 05:58:27;;;;;;;47.80;27.27;;;;;;;0.93;88.88;101537.97;5072318;28;20033;-73
2022/12/04 06:00:52;;;;;;;48.13;27.77;;;;;;;0.93;88.56;101545.03;5070808;28;20031;-73
2022/12/04 06:03:17;;;;;;;53.00;28.73;;;;;;;0.92;88.58;101546.78;5064564;28;20156;-72
2022/12/04 06:05:43;;;;;;;47.10;27.83;;;;;;;0.91;88.32;101538.88;5061205;28;20028;-73
2022/12/04 06:08:08;;;;;;;54.10;32.05;;;;;;;0.90;88.64;101531.88;5072864;28;20056;-73
2022/12/04 06:10:33;;;;;;;48.42;29.17;;;;;;;0.89;88.77;101530.13;5071526;28;20046;-73
2022/12/04 06:12:58;;;;;;;52.17;28.38;;;;;;;0.87;88.99;101531.03;5069046;28;20389;-73
2022/12/04 06:15:24;;;;;;;46.90;26.80;;;;;;;0.88;88.90;101526.63;5070387;28;20032;-73
2022/12/04 06:17:49;;;;;;;47.42;29.17;;;;;;;0.86;88.97;101531.94;5065172;28;20028;-73
2022/12/04 06:20:15;;;;;;;53.95;30.73;;;;;;;0.85;89.18;101534.63;5070120;28;20476;-72
2022/12/04 06:22:40;;;;;;;52.28;29.50;;;;;;;0.89;89.40;101535.41;5063760;28;20035;-73
2022/12/04 06:25:06;;;;;;;49.33;27.00;;;;;;;0.91;89.53;101533.59;5067028;28;20093;-73
2022/12/04 06:27:32;;;;;;;56.95;28.25;;;;;;;0.90;89.30;101534.53;5070356;28;20051;-73
2022/12/04 06:29:57;;;;;;;49.33;28.98;;;;;;;0.90;88.72;101534.53;5071666;28;20025;-73
2022/12/04 06:32:23;;;;;;;48.30;28.30;;;;;;;0.90;89.09;101538.03;5070940;28;20157;-73
2022/12/04 06:34:50;;;;;;;52.20;29.20;;;;;;;0.89;88.74;101541.56;5071265;28;20484;-73
2022/12/04 06:37:16;;;;;;;55.30;30.85;;;;;;;0.91;89.32;101534.50;5072289;28;20047;-73
2022/12/04 06:39:41;;;;;;;48.47;30.05;;;;;;;0.90;89.22;101542.47;5072220;28;20028;-73
2022/12/04 06:42:06;;;;;;;56.13;30.88;;;;;;;0.89;89.13;101544.22;5069060;28;20071;-72
2022/12/04 06:44:31;;;;;;;51.30;28.60;;;;;;;0.86;89.50;101547.81;5064976;28;20020;-73
2022/12/04 06:46:57;;;;;;;52.80;29.38;;;;;;;0.87;89.73;101552.19;5070135;28;20066;-73
2022/12/04 06:49:24;;;;;;;46.40;27.05;;;;;;;0.89;89.57;101544.22;5064504;28;20071;-73
2022/12/04 06:51:49;;;;;;;52.08;29.55;;;;;;;0.89;89.10;101538.94;5069347;28;20048;-73
2022/12/04 06:54:14;;;;;;;54.10;27.52;;;;;;;0.90;89.21;101537.16;5071615;28;20028;-73
2022/12/04 06:56:40;;;;;;;48.25;29.20;;;;;;;0.90;89.25;101543.31;5071508;28;20029;-73
2022/12/04 06:59:05;;;;;;;53.50;28.92;;;;;;;0.90;89.42;101550.41;5066614;28;20040;-73
2022/12/04 07:01:32;;;;;;;48.90;27.15;;;;;;;0.91;89.50;101555.66;5062222;28;20479;-73
2022/12/04 07:04:00;;;;;;;51.13;30.63;;;;;;;0.90;89.33;101553.91;5072779;28;20082;-73
2022/12/04 07:06:43;;;;;;;47.33;27.77;;;;;;;0.94;89.54;101562.63;5068634;28;20032;-72
2022/12/04 07:09:12;;;;;;;53.00;30.55;;;;;;;0.91;89.39;101560.06;5068823;28;20064;-73
2022/12/04 07:11:39;;;;;;;50.77;28.63;;;;;;;0.92;89.55;101562.69;5071771;28;20081;-73
2022/12/04 07:14:04;;;;;;;52.42;28.75;;;;;;;0.92;89.34;101560.03;5070802;28;20043;-73
2022/12/04 07:16:30;;;;;;;47.03;27.67;;;;;;;0.93;89.54;101558.28;5062219;28;20033;-73
2022/12/04 07:18:56;;;;;;;53.50;29.58;;;;;;;0.94;89.41;101566.19;5066286;28;20039;-73
2022/12/04 07:21:25;;;;;;;45.67;28.88;;;;;;;0.95;89.58;101567.03;5069725;28;20035;-73
2022/12/04 07:23:53;;;;;;;49.70;26.00;;;;;;;0.96;89.13;101569.66;5071849;28;20044;-73
2022/12/04 07:26:19;;;;;;;48.35;26.92;;;;;;;0.93;89.29;101569.72;5070668;28;20294;-73
2022/12/04 07:28:45;;;;;;;48.15;27.60;;;;;;;0.95;89.75;101574.97;5069141;28;20082;-73
2022/12/04 07:31:17;;;;;;;49.70;27.45;;;;;;;0.97;89.35;101568.75;5070670;28;20560;-73
2022/12/04 07:33:43;;;;;;;44.60;26.80;;;;;;;0.99;89.53;101577.53;5068103;28;20048;-73
2022/12/04 07:36:12;;;;;;;60.40;29.63;;;;;;;0.99;88.71;101572.22;5063012;28;20020;-73
2022/12/04 07:38:37;;;;;;;47.25;29.42;;;;;;;1.00;88.95;101567.81;5064802;28;20031;-73
2022/12/04 07:41:04;;;;;;;44.88;27.40;;;;;;;1.00;89.63;101573.97;5067190;28;20112;-73
2022/12/04 07:43:30;;;;;;;50.67;27.63;;;;;;;1.03;89.11;101575.69;5064118;28;20025;-72
2022/12/04 07:45:58;;;;;;;47.13;26.38;;;;;;;0.99;88.66;101577.53;5069424;28;20090;-73
2022/12/04 07:48:23;;;;;;;48.80;27.20;;;;;;;1.00;89.79;101575.75;5069873;28;20045;-73
2022/12/04 07:50:48;;;;;;;47.47;26.98;;;;;;;0.99;88.86;101585.47;5064495;28;20053;-73
2022/12/04 07:53:14;;;;;;;42.53;24.73;;;;;;;1.02;89.02;101579.25;5072224;28;20025;-73
2022/12/04 07:55:39;;;;;;;47.25;26.73;;;;;;;1.01;88.72;101581.03;5071210;28;20383;-73
2022/12/04 07:58:05;;;;;;;45.88;24.77;;;;;;;1.01;88.70;101578.38;5070388;28;20107;-73
2022/12/04 08:00:30;;;;;;;47.10;26.02;;;;;;;1.03;88.85;101586.28;5067423;28;20041;-73
2022/12/04 08:02:55;;;;;;;45.22;24.75;;;;;;;1.03;89.35;101576.56;5070863;28;20111;-73
2022/12/04 08:05:21;;;;;;;44.58;24.58;;;;;;;1.09;89.46;101585.28;5065529;28;20036;-73
2022/12/04 08:07:46;;;;;;;46.70;27.90;;;;;;;1.13;88.80;101590.47;5064494;28;20021;-73
2022/12/04 08:10:12;;;;;;;46.65;27.10;;;;;;;1.14;88.88;101588.69;5061729;28;20475;-73
2022/12/04 08:12:37;;;;;;;43.47;25.27;;;;;;;1.14;88.72;101591.34;5070823;28;20031;-73
2022/12/04 08:15:04;;;;;;;42.00;24.17;;;;;;;1.12;88.55;101588.72;5069855;28;20028;-73
2022/12/04 08:17:29;;;;;;;44.85;25.63;;;;;;;1.09;88.79;101591.44;5067376;28;20032;-73
2022/12/04 08:19:54;;;;;;;44.40;26.30;;;;;;;1.11;89.30;101596.69;5075711;28;20115;-73
2022/12/04 08:22:19;;;;;;;44.13;26.65;;;;;;;1.13;89.07;101592.22;5072627;28;20028;-72
2022/12/04 08:24:45;;;;;;;45.75;25.38;;;;;;;1.16;89.14;101590.41;5074328;28;20013;-74
2022/12/04 08:27:10;;;;;;;41.30;24.67;;;;;;;1.18;88.92;101600.97;5075776;28;20126;-73
2022/12/04 08:29:35;;;;;;;44.50;25.38;;;;;;;1.17;88.57;101600.09;5066944;28;20032;-72
2022/12/04 08:32:01;;;;;;;40.78;22.88;;;;;;;1.21;88.95;101603.53;5071433;28;20031;-72
2022/12/04 08:34:26;;;;;;;39.28;23.13;;;;;;;1.22;88.36;101598.19;5076299;28;20108;-73
2022/12/04 08:36:51;;;;;;;42.85;23.35;;;;;;;1.24;88.24;101598.16;5075482;28;20036;-74
2022/12/04 08:39:17;;;;;;;42.83;22.38;;;;;;;1.27;88.43;101597.22;5074662;28;20394;-73
2022/12/04 08:41:42;;;;;;;39.00;22.58;;;;;;;1.26;87.92;101591.06;5073031;28;20025;-72
2022/12/04 08:44:08;;;;;;;37.00;21.83;;;;;;;1.30;87.97;101597.16;5067887;28;20131;-72
2022/12/04 08:46:34;;;;;;;43.35;21.50;;;;;;;1.30;87.66;101594.50;5073789;28;20036;-73
2022/12/04 08:48:59;;;;;;;44.38;23.92;;;;;;;1.28;87.43;101586.59;5067515;28;20036;-73
2022/12/04 08:51:27;;;;;;;41.85;24.90;;;;;;;1.28;87.49;101591.03;5071483;28;20056;-73
2022/12/04 08:53:55;;;;;;;40.83;22.67;;;;;;;1.29;87.70;101590.09;5073137;28;20036;-72
2022/12/04 08:56:20;;;;;;;38.38;22.08;;;;;;;1.29;87.90;101591.00;5072166;28;20395;-73
2022/12/04 08:58:46;;;;;;;36.55;21.77;;;;;;;1.30;87.58;101584.78;5070016;28;20032;-72
2022/12/04 09:01:13;;;;;;;37.40;20.60;;;;;;;1.32;87.60;101588.28;5070660;28;20525;-73
2022/12/04 09:03:39;;;;;;;40.25;21.13;;;;;;;1.33;87.27;101589.16;5075282;28;20028;-73
2022/12/04 09:06:05;;;;;;;37.28;21.45;;;;;;;1.32;86.94;101583.00;5068109;28;20024;-72
2022/12/04 09:08:31;;;;;;;38.20;20.75;;;;;;;1.34;87.17;101589.09;5069857;28;20082;-73
2022/12/04 09:11:18;;;;;;;37.03;22.08;;;;;;;1.39;87.07;101583.69;5072275;28;20483;-72
2022/12/04 09:13:45;;;;;;;36.13;19.58;;;;;;;1.41;86.54;101589.84;5074890;28;20043;-73
2022/12/04 09:16:14;;;;;;;38.33;20.23;;;;;;;1.46;86.67;101592.38;5062520;28;20033;-73
2022/12/04 09:18:40;;;;;;;35.83;19.33;;;;;;;1.47;86.76;101595.00;5055781;28;20032;-73
2022/12/04 09:21:09;;;;;;;39.03;19.88;;;;;;;1.50;86.78;101589.63;5073538;28;20052;-73
2022/12/04 09:23:36;;;;;;;36.38;20.52;;;;;;;1.53;86.33;101591.34;5064903;28;20096;-73
2022/12/04 09:26:02;;;;;;;38.65;20.17;;;;;;;1.54;86.17;101598.38;5054225;28;20361;-73
2022/12/04 09:28:28;;;;;;;40.53;22.50;;;;;;;1.51;86.07;101595.81;5054558;28;20350;-73
2022/12/04 09:31:02;;;;;;;38.90;18.67;;;;;;;1.56;86.43;101604.50;5059880;28;20074;-73
2022/12/04 09:33:29;;;;;;;37.28;19.95;;;;;;;1.58;85.89;101607.97;5073131;28;20032;-73
2022/12/04 09:35:54;;;;;;;35.40;19.48;;;;;;;1.60;85.84;101602.63;5073192;28;20035;-73
2022/12/04 09:38:20;;;;;;;35.38;19.05;;;;;;;1.61;85.71;101599.97;5074355;28;20025;-72
2022/12/04 09:40:59;;;;;;;34.40;19.88;;;;;;;1.65;85.73;101595.47;5062019;28;20025;-73
2022/12/04 09:43:38;;;;;;;40.97;19.17;;;;;;;1.68;85.49;101595.38;5070390;28;20031;-73
2022/12/04 09:46:10;;;;;;;37.00;20.10;;;;;;;1.66;85.36;101591.91;5069682;28;20021;-73
2022/12/04 09:48:39;;;;;;;39.03;19.52;;;;;;;1.65;85.65;101591.03;5055598;28;20036;-73
2022/12/04 09:51:07;;;;;;;36.22;19.35;;;;;;;1.67;85.62;101598.94;5070970;28;20511;-73
2022/12/04 09:53:46;;;;;;;37.08;19.42;;;;;;;1.68;85.50;101604.19;5074077;28;20387;-73
2022/12/04 09:56:16;;;;;;;38.27;20.73;;;;;;;1.65;86.40;101601.63;5057351;28;20028;-73
2022/12/04 09:59:04;;;;;;;;;;;;;;;1.72;85.68;101597.91;5070580;28;20282;-74
2022/12/04 10:01:40;;;;;;;36.15;18.10;;;;;;;1.65;84.67;101612.22;5058936;28;20409;-73
2022/12/04 10:04:09;;;;;;;35.33;17.23;;;;;;;1.55;83.67;101611.59;5055914;28;20075;-72
2022/12/04 10:06:52;;;;;;;35.35;18.20;;;;;;;1.53;84.72;101612.53;5073412;28;20020;-73
2022/12/04 10:09:30;;;;;;;32.75;17.70;;;;;;;1.53;84.93;101597.50;5059591;28;20017;-73
2022/12/04 10:12:11;;;;;;;34.20;16.85;;;;;;;1.57;84.27;101603.59;5073298;28;20029;-73
2022/12/04 10:15:02;;;;;;;34.00;19.52;;;;;;;1.53;83.80;101605.44;5066926;28;20020;-72
2022/12/04 10:17:49;;;;;;;33.85;17.30;;;;;;;1.48;84.06;101598.50;5064720;28;20484;-73
2022/12/04 10:20:44;;;;;;;35.17;16.23;;;;;;;1.44;84.45;101597.72;5072327;28;20403;-72
2022/12/04 10:23:41;;;;;;;34.10;16.30;;;;;;;1.46;84.53;101593.25;5072376;28;20110;-73
2022/12/04 10:26:14;;;;;;;32.70;17.35;;;;;;;1.46;84.86;101589.72;5070596;28;20024;-73
2022/12/04 10:28:46;;;;;;;33.35;15.95;;;;;;;1.45;84.09;101596.81;5068479;28;20032;-73
2022/12/04 10:31:13;;;;;;;31.13;17.90;;;;;;;1.42;84.04;101594.25;5064869;28;20056;-73
2022/12/04 10:33:46;;;;;;;32.65;16.10;;;;;;;1.41;84.25;101603.09;5064688;28;20055;-73
2022/12/04 10:36:15;;;;;;;34.95;17.20;;;;;;;1.39;84.75;101605.78;5067071;28;20029;-74
2022/12/04 10:38:47;;;;;;;30.05;16.15;;;;;;;1.40;85.09;101596.91;5063273;28;20029;-73
2022/12/04 10:41:17;;;;;;;34.95;17.15;;;;;;;1.40;85.57;101602.19;5069049;28;20031;-72
2022/12/04 10:43:46;;;;;;;31.25;15.20;;;;;;;1.40;85.63;101604.84;5071700;28;20027;-73
2022/12/04 10:46:14;;;;;;;33.10;15.57;;;;;;;1.43;85.44;101605.69;5072316;28;20123;-73
2022/12/04 10:48:42;;;;;;;31.85;15.25;;;;;;;1.45;85.73;101601.22;5061353;28;20358;-72
2022/12/04 10:51:16;;;;;;;33.28;16.33;;;;;;;1.48;85.57;101606.44;5070540;28;20583;-72
2022/12/04 10:53:43;;;;;;;33.25;18.33;;;;;;;1.48;85.03;101598.50;5070705;28;20028;-72
2022/12/04 10:56:13;;;;;;;34.30;16.27;;;;;;;1.44;84.88;101599.50;5072490;28;20024;-73
2022/12/04 10:58:39;;;;;;;34.60;19.55;;;;;;;1.45;84.72;101598.59;5071590;28;20551;-73
2022/12/04 11:01:08;;;;;;;30.60;17.75;;;;;;;1.42;84.39;101593.34;5060798;28;20111;-73
2022/12/04 11:03:34;;;;;;;33.90;16.58;;;;;;;1.39;84.81;101587.22;5067522;28;20756;-74
2022/12/04 11:06:05;;;;;;;37.40;17.70;;;;;;;1.40;84.87;101582.78;5067444;28;20024;-73
2022/12/04 11:08:34;;;;;;;32.55;17.02;;;;;;;1.38;84.92;101579.34;5070502;28;20020;-73
2022/12/04 11:11:04;;;;;;;32.72;17.92;;;;;;;1.37;84.99;101581.09;5071582;28;20510;-73
2022/12/04 11:13:29;;;;;;;34.67;16.70;;;;;;;1.38;84.70;101569.59;5072317;28;20025;-73
2022/12/04 11:15:57;;;;;;;33.17;17.77;;;;;;;1.38;85.58;101571.38;5068529;28;20131;-73
2022/12/04 11:18:32;;;;;;;35.38;17.98;;;;;;;1.35;85.17;101572.31;5068410;28;20127;-73
2022/12/04 11:21:28;;;;;;;34.92;18.00;;;;;;;1.34;85.87;101565.28;5057613;28;20082;-73
2022/12/04 11:23:53;;;;;;;34.97;17.33;;;;;;;1.33;85.74;101563.56;5049365;28;20436;-73
2022/12/04 11:26:31;;;;;;;32.78;17.27;;;;;;;1.40;86.05;101570.41;5067358;28;20127;-73
2022/12/04 11:29:00;;;;;;;33.30;17.23;;;;;;;1.43;85.59;101563.31;5070652;28;20029;-74
2022/12/04 11:31:26;;;;;;;32.40;16.67;;;;;;;1.43;85.41;101552.72;5071195;28;20028;-74
2022/12/04 11:33:59;;;;;;;33.78;17.77;;;;;;;1.44;85.60;101559.78;5068520;28;20032;-74
2022/12/04 11:36:31;;;;;;;34.03;18.08;;;;;;;1.46;86.20;101561.47;5064014;28;20032;-74
2022/12/04 11:39:11;;;;;;;33.47;18.58;;;;;;;1.48;85.25;101556.13;5065323;28;20085;-74
2022/12/04 11:41:37;;;;;;;32.72;15.77;;;;;;;1.46;85.09;101555.31;5057326;28;20036;-74
2022/12/04 11:44:19;;;;;;;36.03;18.35;;;;;;;1.47;85.09;101552.63;5064333;28;20020;-74